• Join FlightAware (Why Join?)
  • Login
  • US Flag 
06:28PM EDT


 

Airport Tracker/Info


-or-


 

Live Flight TrackerFlight Track Log ✈ ANZ356 ✈ 25-Jul-2013 ✈ NZCH / CHC - NZWN / WLG

Flight Track Log - Related Links

Times and Time Zones

All times are in EDT time to prevent confusion due to time zone crossing. See the ANZ356 flight status page for this flight to view local times or setup timezone preferences in your user account.

Time Position Orientation Groundspeed Altitude Reporting Facility
EDT Latitude Longitude Course Direction KTS MPH feet Rate Location/Type
01:30AM -43.4880 172.5360 357° North 2 2  Level FlightAware
01:30AM -43.4880 172.5350 270° West 2 2 120 Level FlightAware
01:33AM -43.2591 172.7854 39° Northeast  Level Estimated
01:34AM -43.1463 172.9078 38° Northeast  Level Estimated
01:34AM -43.4880 172.5340 38° Northeast 9 10  Level FlightAware
01:34AM -43.4890 172.5330 216° Southwest 17 20 240 Level FlightAware
01:35AM -43.4910 172.5310 216° Southwest 18 21 300 Level FlightAware
01:35AM -43.4930 172.5290 216° Southwest 15 17 360 Level FlightAware
01:35AM -43.4940 172.5280 216° Southwest 11 13 420 Level FlightAware
01:36AM -43.4940 172.5270 270° West 9 10 480 Level FlightAware
01:36AM -43.4940 172.5250 270° West 10 12 660 Level FlightAware
01:37AM -43.4930 172.5250 360° North 12 14 840 Level FlightAware
01:37AM -43.4900 172.5280 36° Northeast 84 97 1,200 Level FlightAware
01:37AM -43.4720 172.5500 42° Northeast 167 192 1,100 2,160 Climbing FlightAware
01:38AM -43.4630 172.5600 39° Northeast 172 198 1,700 2,100 Climbing FlightAware
01:38AM -43.4470 172.5780 39° Northeast 195 224 2,500 1,500 Climbing FlightAware
01:38AM -43.4350 172.5900 36° Northeast 222 255 2,700 1,320 Climbing FlightAware
01:39AM -43.4090 172.6160 36° Northeast 261 300 3,500 1,980 Climbing FlightAware
01:39AM -43.3760 172.6490 36° Northeast 283 326 4,700 2,640 Climbing FlightAware
01:39AM -43.3667 172.6500 36° Northeast 280 322 3,000 Descending New Zealand
01:40AM -43.3560 172.6690 36° Northeast 288 331 5,700 8,160 Climbing FlightAware
01:40AM -43.3140 172.7110 36° Northeast 329 379 6,700 1,980 Climbing FlightAware
01:40AM -43.3020 172.7240 38° Northeast 332 382 7,200 2,520 Climbing FlightAware
01:41AM -43.2630 172.7620 35° Northeast 351 404 8,400 2,520 Climbing FlightAware
01:41AM -43.2520 172.7740 38° Northeast 355 409 8,900 3,000 Climbing FlightAware
01:42AM -43.1900 172.8360 36° Northeast 370 426 11,200 3,120 Climbing FlightAware
01:43AM -43.1333 172.9000 36° Northeast 378 435 3,180 Descending New Zealand
01:43AM -43.1260 172.9000 36° Northeast 380 437 13,600 23,220 Climbing FlightAware
01:43AM -43.0670 172.9580 36° Northeast 399 459 15,500 2,940 Climbing FlightAware
01:44AM -42.9990 173.0260 36° Northeast 413 475 17,800 2,820 Climbing FlightAware
01:45AM -42.9360 173.0890 36° Northeast 427 491 19,500 2,520 Climbing FlightAware
01:45AM -42.9333 173.0833 36° Northeast 423 487 2,520 Descending New Zealand
01:45AM -42.8720 173.1530 36° Northeast 442 509 21,200 16,140 Climbing FlightAware
01:46AM -42.7940 173.2310 36° Northeast 456 525 22,900 1,200 Climbing FlightAware
01:47AM -42.7240 173.3000 36° Northeast 457 526 23,000 60 Climbing FlightAware
01:47AM -42.7167 173.3000 36° Northeast 458 527  Descending New Zealand
01:48AM -42.6480 173.3760 36° Northeast 458 527 23,000 16,380 Climbing FlightAware
01:48AM -42.5790 173.4440 36° Northeast 457 526 23,000  Level FlightAware
01:49AM -42.5130 173.5090 36° Northeast 453 521 23,000  Level FlightAware
01:49AM -42.5167 173.5167 36° Northeast 454 522  Descending New Zealand
01:50AM -42.4440 173.5770 36° Northeast 456 525 23,000 17,640 Climbing FlightAware
01:50AM -42.3750 173.6450 36° Northeast 452 520 23,000  Level FlightAware
01:51AM -42.3070 173.7110 36° Northeast 454 522 23,000 -120 Level FlightAware
01:51AM -42.3000 173.7167 36° Northeast 454 522 -180 Descending New Zealand
01:52AM -42.2380 173.7760 35° Northeast 449 517 22,900 19,080 Climbing FlightAware
01:52AM -42.1880 173.8250 36° Northeast 429 494 22,000 -1,980 Descending FlightAware
01:53AM -42.1100 173.9020 36° Northeast 420 483 20,300 -2,340 Descending FlightAware
01:54AM -42.0470 173.9630 36° Northeast 410 472 18,700 -2,160 Descending FlightAware
01:54AM -42.0000 174.0167 36° Northeast 408 470 -1,860 Descending New Zealand
01:54AM -41.9840 174.0240 36° Northeast 396 456 17,400 18,300 Climbing FlightAware
01:55AM -41.9220 174.0840 36° Northeast 397 457 15,600 -2,280 Descending FlightAware
01:55AM -41.9000 174.1000 36° Northeast 397 457 -1,980 Descending New Zealand
01:56AM -41.8590 174.1440 35° Northeast 380 437 14,100 10,680 Climbing FlightAware
01:56AM -41.8030 174.1990 36° Northeast 376 433 12,700 -1,860 Descending FlightAware
01:57AM -41.7490 174.2500 35° Northeast 354 407 11,800 -1,500 Descending FlightAware
01:58AM -41.6960 174.3140 42° Northeast 342 394 10,600 -1,920 Descending FlightAware
01:58AM -41.6660 174.3530 42° Northeast 342 394 9,600 -2,100 Descending FlightAware
01:58AM -41.6667 174.3667 42° Northeast 349 402 -1,800 Descending New Zealand
01:59AM -41.6330 174.3980 46° Northeast 329 379 8,700 10,920 Climbing FlightAware
01:59AM -41.6120 174.4250 44° Northeast 323 372 8,200 -1,620 Descending FlightAware
01:59AM -41.6010 174.4400 46° Northeast 321 369 7,900 -1,980 Descending FlightAware
02:00AM -41.5690 174.4820 44° Northeast 318 366 6,900 -1,980 Descending FlightAware
02:00AM -41.5420 174.5170 44° Northeast 299 344 6,100 -1,980 Descending FlightAware
02:00AM -41.5300 174.5370 51° Northeast 305 351 5,600 -1,440 Descending FlightAware
02:01AM -41.5250 174.5640 76° East 293 337 5,400 -600 Descending FlightAware
02:01AM -41.5250 174.5910 90° East 278 320 5,300 -420 Descending FlightAware
02:01AM -41.5260 174.6410 90° East 254 292 5,100 -480 Descending FlightAware
02:01AM -41.5333 174.6500 90° East 264 304 -480 Descending New Zealand
02:02AM -41.5260 174.6790 90° East 241 277 4,900 4,800 Climbing FlightAware
02:02AM -41.5280 174.7230 93° East 241 277 4,200 -1,020 Descending FlightAware
02:03AM -41.5300 174.7550 95° East 225 259 4,000 -780 Descending FlightAware
02:03AM -41.5120 174.7860 52° Northeast 183 211 3,500 -840 Descending FlightAware
02:03AM -41.5000 174.7890 11° North 177 204 3,400 -180 Descending FlightAware
02:04AM -41.4850 174.7910 North 164 189 3,400 -660 Level FlightAware
02:04AM -41.4620 174.7930 North 163 188 2,900 -1,080 Descending FlightAware
02:05AM -41.4430 174.7940 North 163 188 2,500 -900 Descending FlightAware
02:05AM -41.4230 174.7950 North 160 184 2,100 -540 Descending FlightAware
02:06AM -41.3940 174.7960 North 146 168 1,900 -840 Descending FlightAware
02:06AM -41.3770 174.7980 North 123 142 1,200 -1,260 Descending FlightAware
02:07AM -41.3640 174.7980 360° North 122 140 900 -660 Descending FlightAware
02:07AM -41.3480 174.7990 North 122 140 600 -660 Descending FlightAware
02:08AM -41.3320 174.8000 North 128 147 300 -720 Descending FlightAware
02:08AM -41.3333 174.8000 North 125 144 -2,280 Descending New Zealand
02:08AM -41.3190 174.8010 North 30 35  Level FlightAware
02:09AM -41.3200 174.8020 143° Southeast 19 22  Level FlightAware
02:09AM -41.3220 174.8020 180° South 16 18  Level FlightAware
02:10AM -41.3230 174.8020 180° South 10 12  Level FlightAware
02:10AM -41.3240 174.8020 180° South 13 15  Level FlightAware
02:11AM -41.3260 174.8020 180° South 15 17  Level FlightAware
02:11AM -41.3270 174.8030 143° Southeast 9 10  Level FlightAware
02:14AM -41.3272 174.8053 97° East  Level Estimated
02:15AM -41.3272 174.8053 236° Southwest  Level Estimated
02:16AM -41.3272 174.8053 236° Southwest  Level Estimated
02:17AM -41.3272 174.8053 236° Southwest  Level Estimated
02:18AM -41.3272 174.8053 236° Southwest  Level Estimated
02:19AM -41.3272 174.8053 236° Southwest  Level Estimated